Dennis, MA

2:17 PM EDT on August 30, 2014 (GMT -0400)
Provincetown Municipal | Change Station
CLOSE
Current Station
Airport
Location: Provincetown,
Elevation: 7 ft
Nearby Weather Stations

Elev 7 ft 42.07 °N, 70.22 °W | Updated 22 minutes ago

Clear
Clear
72 °F
Feels Like 72 °F
N
13
Wind Variable Wind from South
Gusts 18 mph

Today
High -- | Low -- °F
--% Chance of Precip.
Yesterday
High -- | Low -- °F
Precip. -- in
6:04 AM 7:17 PM
Waxing Crescent, 23% visible
Pressure 30.26 in
Visibility 10.0 miles
Clouds Clear
Dew Point 54 °F
Humidity 53%
Rainfall 0.49 in
Snow Depth Not available.
UV 9 out of 12
Pollen 9.20 out of 12
Ozone Good
Flu Activity Not available.
METAR KPVC 301755Z 18011G16KT 10SM CLR 22/12 A3026 RMK AO1 P0001 60030 10220 20170 57020

More Conditions Fewer Conditions

Pressure 30.26 in
Visibility 10.0 miles
Clouds Clear
Dew Point 54 °F
Humidity 53%
Rainfall 0.49 in
Snow Depth Not available.
UV 9 out of 12
Pollen 9.20 out of 12
Ozone Good
Flu Activity Not available.
METAR KPVC 301755Z 18011G16KT 10SM CLR 22/12 A3026 RMK AO1 P0001 60030 10220 20170 57020

More Conditions Fewer Conditions

10-Day Weather Forecast

Almanac

Astronomy

Aug. 30, 2014 Rise Set
Actual Time 6:04 AM EDT 7:17 PM EDT
Civil Twilight 5:35 AM EDT 7:46 PM EDT
Nautical Twilight 5:01 AM EDT 8:20 PM EDT
Astronomical Twilight 4:25 AM EDT 8:56 PM EDT
Moon 10:53 AM EDT 9:44 PM EDT
Length of Visible Light 14h 10m
Length of Day
13h 12m
Tomorrow will be 2m 40s shorter.
Waxing Crescent, 23% of the Moon is Illuminated
Today
Waxing Crescent
Sep 2
First Quarter
Sep 8
Full
Sep 15
Last Quarter
Sep 24
New

Today's Extremes

State Highs State Lows

Community

WunderPhotos

Upload Photos

1,748,583 photos uploaded!

WunderBlogs® & News

Nearby

Air Quality

  Air Quality AQ Index Pollutant
Yesterday Good
OZONE
Current Good
OZONE
Saturday Good
PM2.5
Saturday Good
OZONE

Snow Depth

Station Depth Elevation
No new snow has been reported.

Earthquake Activity

City Distance Mag. Time & Date
No recent earthquake activity has been reported nearby.
Minimum magnitude displayed is 2.5.

Coastal Water Temperatures

Place Temperature
Woods Hole, MA 71.1 °F
Nantucket Island, MA 71.1 °F
Boston, MA 66.9 °F
Fall River, MA 73.0 °F

Nearby Weather Stations